createdAt,value
2023-03-22T00:00:56.351Z,60.43
2023-03-22T00:03:24.881Z,67.27
2023-03-22T00:05:57.545Z,58.70
2023-03-22T00:08:27.435Z,69.00
2023-03-22T00:10:55.294Z,63.63
2023-03-22T00:13:23.284Z,60.07
2023-03-22T00:15:51.229Z,61.90
2023-03-22T00:18:19.381Z,63.97
2023-03-22T00:20:50.239Z,64.60
2023-03-22T00:23:19.701Z,66.40
2023-03-22T00:25:48.965Z,63.67
2023-03-22T00:28:17.228Z,65.37
2023-03-22T00:30:51.444Z,65.07
2023-03-22T00:33:19.521Z,68.17
2023-03-22T00:35:51.592Z,68.93
2023-03-22T00:38:21.883Z,64.67
2023-03-22T00:40:52.731Z,69.40
2023-03-22T00:43:20.444Z,68.10
2023-03-22T00:45:48.357Z,71.97
2023-03-22T00:48:16.542Z,71.17
2023-03-22T00:50:44.535Z,67.17
2023-03-22T00:53:12.554Z,68.37
2023-03-22T00:55:40.764Z,70.07
2023-03-22T00:58:10.704Z,73.67
2023-03-22T01:00:39.037Z,69.43
2023-03-22T01:03:07.382Z,64.07
2023-03-22T01:05:35.596Z,64.77
2023-03-22T01:08:08.710Z,70.97
2023-03-22T01:10:37.046Z,64.83
2023-03-22T01:13:05.074Z,79.47
2023-03-22T01:15:34.878Z,78.80
2023-03-22T01:18:02.832Z,71.30
2023-03-22T01:20:30.831Z,62.47
2023-03-22T01:22:59.609Z,66.13
2023-03-22T01:25:28.084Z,66.97
2023-03-22T01:27:55.969Z,76.87
2023-03-22T01:30:24.189Z,68.77
2023-03-22T01:32:53.355Z,68.83
2023-03-22T01:35:21.354Z,74.47
2023-03-22T01:37:49.671Z,75.17
2023-03-22T01:40:18.974Z,72.27
2023-03-22T01:42:47.360Z,71.30
2023-03-22T01:45:33.698Z,71.17
2023-03-22T01:48:04.832Z,71.63
2023-03-22T01:50:38.970Z,71.57
2023-03-22T01:53:09.026Z,65.63
2023-03-22T01:55:38.570Z,63.07
2023-03-22T01:58:10.689Z,63.93
2023-03-22T02:00:47.096Z,63.67
2023-03-22T02:03:48.827Z,69.20
2023-03-22T02:06:17.743Z,62.87
2023-03-22T02:08:49.770Z,61.83
2023-03-22T02:11:22.831Z,59.70
2023-03-22T02:14:05.301Z,59.30
2023-03-22T02:17:00.186Z,71.00
2023-03-22T02:19:45.426Z,60.30
2023-03-22T02:22:23.419Z,64.57
2023-03-22T02:25:08.913Z,66.30
2023-03-22T02:27:48.842Z,67.27
2023-03-22T02:30:26.226Z,65.97
2023-03-22T02:33:03.770Z,70.13
2023-03-22T02:35:42.166Z,64.60
2023-03-22T02:38:24.004Z,63.27
2023-03-22T02:40:54.624Z,62.50
2023-03-22T02:43:30.935Z,70.27
2023-03-22T02:46:02.778Z,59.77
2023-03-22T02:48:32.817Z,60.43
2023-03-22T02:51:02.389Z,63.80
2023-03-22T02:53:34.253Z,66.90
2023-03-22T02:56:04.441Z,65.37
2023-03-22T02:58:37.111Z,63.40
2023-03-22T03:01:06.728Z,65.37
2023-03-22T03:03:37.809Z,65.73
2023-03-22T03:06:08.340Z,61.10
2023-03-22T03:08:38.038Z,66.73
2023-03-22T03:11:07.986Z,67.17
2023-03-22T03:13:36.156Z,62.27
2023-03-22T03:16:08.345Z,57.77
2023-03-22T03:18:45.285Z,64.07
2023-03-22T03:21:18.923Z,61.83
2023-03-22T03:23:49.857Z,58.33
2023-03-22T03:26:24.625Z,61.90
2023-03-22T03:28:54.500Z,63.50
2023-03-22T03:31:29.256Z,56.80
2023-03-22T03:34:01.117Z,60.00
2023-03-22T03:36:30.177Z,60.87
2023-03-22T03:38:58.826Z,60.80
2023-03-22T03:41:33.629Z,62.63
2023-03-22T03:44:01.846Z,62.07
2023-03-22T03:46:30.176Z,63.93
2023-03-22T03:48:59.280Z,60.10
2023-03-22T03:51:28.134Z,63.07
2023-03-22T03:53:56.003Z,56.73
2023-03-22T03:56:24.212Z,55.57
2023-03-22T03:58:54.689Z,63.77
2023-03-22T04:01:24.025Z,55.37
2023-03-22T04:04:18.648Z,61.67
2023-03-22T04:06:53.059Z,62.57
2023-03-22T04:09:24.863Z,57.17
2023-03-22T04:11:57.542Z,62.70
2023-03-22T04:14:27.815Z,59.93
2023-03-22T04:17:03.068Z,60.23
2023-03-22T04:19:31.311Z,54.47
2023-03-22T04:22:00.206Z,56.60
2023-03-22T04:24:28.058Z,53.70
2023-03-22T04:26:57.361Z,53.23
2023-03-22T04:29:32.126Z,56.13
2023-03-22T04:32:16.672Z,63.83
2023-03-22T04:34:44.490Z,55.33
2023-03-22T04:37:14.917Z,54.87
2023-03-22T04:39:54.165Z,53.73
2023-03-22T04:42:48.202Z,54.97
2023-03-22T04:45:25.350Z,55.97
2023-03-22T04:47:57.923Z,60.40
2023-03-22T04:50:28.187Z,60.30
2023-03-22T04:53:00.492Z,58.33
2023-03-22T04:55:31.122Z,60.60
2023-03-22T04:57:59.193Z,54.33
2023-03-22T05:00:30.446Z,54.73
2023-03-22T05:02:59.875Z,59.63
2023-03-22T05:05:34.194Z,53.70
2023-03-22T05:08:04.237Z,53.37
2023-03-22T05:10:32.115Z,53.23
2023-03-22T05:12:59.906Z,57.00
2023-03-22T05:15:34.134Z,54.40
2023-03-22T05:18:04.300Z,54.00
2023-03-22T05:20:32.527Z,55.87
2023-03-22T05:23:11.684Z,53.33
2023-03-22T05:25:44.967Z,57.57
2023-03-22T05:28:16.835Z,57.50
2023-03-22T05:30:51.653Z,61.97
2023-03-22T05:33:31.050Z,54.87
2023-03-22T05:35:59.406Z,55.50
2023-03-22T05:38:30.236Z,57.37
2023-03-22T05:41:01.106Z,54.03
2023-03-22T05:43:32.659Z,61.40
2023-03-22T05:46:01.805Z,54.03
2023-03-22T05:48:41.647Z,57.90
2023-03-22T05:51:13.544Z,53.80
2023-03-22T05:53:41.775Z,55.27
2023-03-22T05:56:16.946Z,56.57
2023-03-22T05:58:47.330Z,59.60
2023-03-22T06:01:21.777Z,55.43
2023-03-22T06:04:09.456Z,58.10
2023-03-22T06:06:50.397Z,61.47
2023-03-22T06:09:33.812Z,61.53
2023-03-22T06:12:02.763Z,56.10
2023-03-22T06:14:30.581Z,58.67
2023-03-22T06:17:12.165Z,59.93
2023-03-22T06:19:41.011Z,52.87
2023-03-22T06:22:09.963Z,59.50
2023-03-22T06:24:40.780Z,60.60
2023-03-22T06:27:10.836Z,60.80
2023-03-22T06:29:41.255Z,57.63
2023-03-22T06:32:11.336Z,55.00
2023-03-22T06:34:39.482Z,51.83
2023-03-22T06:37:07.908Z,57.97
2023-03-22T06:39:39.082Z,53.80
2023-03-22T06:42:07.573Z,57.57
2023-03-22T06:44:35.818Z,55.93
2023-03-22T06:47:16.564Z,51.43
2023-03-22T06:49:58.997Z,54.00
2023-03-22T06:52:40.368Z,53.30
2023-03-22T06:55:09.680Z,54.40
2023-03-22T06:57:37.728Z,52.90
2023-03-22T07:00:06.546Z,50.40
2023-03-22T07:02:36.362Z,51.37
2023-03-22T07:05:21.935Z,50.87
2023-03-22T07:07:49.696Z,51.20
2023-03-22T07:10:17.737Z,48.13
2023-03-22T07:12:45.480Z,44.27
2023-03-22T07:15:17.885Z,44.03
2023-03-22T07:18:02.341Z,46.80
2023-03-22T07:20:34.525Z,46.40
2023-03-22T07:23:02.266Z,46.17
2023-03-22T07:25:34.627Z,43.83
2023-03-22T07:28:16.041Z,44.00
2023-03-22T07:30:45.030Z,43.20
2023-03-22T07:33:14.644Z,41.70
2023-03-22T07:35:43.559Z,38.37
2023-03-22T07:38:11.555Z,40.83
2023-03-22T07:40:39.696Z,35.53
2023-03-22T07:43:08.279Z,36.83
2023-03-22T07:45:42.921Z,35.43
2023-03-22T07:48:31.508Z,30.63
2023-03-22T07:51:16.938Z,30.87
2023-03-22T07:53:44.750Z,29.70
2023-03-22T07:56:13.146Z,29.43
2023-03-22T07:58:40.951Z,31.03
2023-03-22T08:01:09.947Z,31.00
2023-03-22T08:03:52.336Z,25.90
2023-03-22T08:06:38.014Z,28.30
2023-03-22T08:09:08.379Z,24.10
2023-03-22T08:11:36.357Z,25.80
2023-03-22T08:14:04.108Z,25.67
2023-03-22T08:16:34.848Z,23.23
2023-03-22T08:19:05.984Z,23.23
2023-03-22T08:21:37.561Z,21.00
2023-03-22T08:24:08.382Z,25.23
2023-03-22T08:26:57.766Z,23.77
2023-03-22T08:29:33.877Z,25.27
2023-03-22T08:32:03.995Z,23.20
2023-03-22T08:34:37.400Z,21.63
2023-03-22T08:37:05.820Z,23.27
2023-03-22T08:39:35.033Z,27.93
2023-03-22T08:42:23.720Z,25.20
2023-03-22T08:44:52.493Z,23.17
2023-03-22T08:47:22.345Z,24.67
2023-03-22T08:49:56.314Z,22.27
2023-03-22T08:52:32.691Z,19.63
2023-03-22T08:55:05.433Z,19.60
2023-03-22T08:57:59.745Z,20.33
2023-03-22T09:00:52.726Z,21.33
2023-03-22T09:03:26.290Z,19.70
2023-03-22T09:05:56.174Z,18.97
2023-03-22T09:08:24.015Z,27.10
2023-03-22T09:10:58.786Z,20.40
2023-03-22T09:13:26.688Z,24.37
2023-03-22T09:15:59.504Z,20.83
2023-03-22T09:18:31.008Z,18.33
2023-03-22T09:21:03.696Z,22.07
2023-03-22T09:23:38.095Z,18.30
2023-03-22T09:26:08.328Z,18.27
2023-03-22T09:28:38.108Z,22.00
2023-03-22T09:31:09.080Z,17.83
2023-03-22T09:33:38.195Z,18.93
2023-03-22T09:36:08.372Z,15.80
2023-03-22T09:38:36.403Z,17.63
2023-03-22T09:41:06.204Z,17.93
2023-03-22T09:43:37.888Z,15.70
2023-03-22T09:46:09.904Z,19.67
2023-03-22T09:48:39.359Z,18.27
2023-03-22T09:51:15.813Z,18.40
2023-03-22T09:53:43.779Z,19.00
2023-03-22T09:56:13.822Z,17.07
2023-03-22T09:58:44.164Z,16.27
2023-03-22T10:01:15.241Z,16.10
2023-03-22T10:03:57.720Z,16.97
2023-03-22T10:06:28.996Z,16.90
2023-03-22T10:09:00.603Z,14.63
2023-03-22T10:11:35.846Z,16.70
2023-03-22T10:14:09.562Z,18.03
2023-03-22T10:16:38.801Z,17.40
2023-03-22T10:19:09.817Z,17.43
2023-03-22T10:21:39.264Z,17.47
2023-03-22T10:24:10.963Z,18.63
2023-03-22T10:26:40.119Z,17.73
2023-03-22T10:29:12.745Z,16.33
2023-03-22T10:31:43.270Z,15.37
2023-03-22T10:34:17.824Z,15.43
2023-03-22T10:36:47.783Z,15.77
2023-03-22T10:39:20.403Z,16.03
2023-03-22T10:41:48.746Z,15.00
2023-03-22T10:44:18.801Z,15.93
2023-03-22T10:46:47.901Z,16.10
2023-03-22T10:49:19.724Z,18.43
2023-03-22T10:51:50.174Z,16.20
2023-03-22T10:54:18.766Z,13.67
2023-03-22T10:56:46.580Z,15.97
2023-03-22T10:59:29.459Z,17.00
2023-03-22T11:01:57.390Z,14.23
2023-03-22T11:04:25.200Z,16.10
2023-03-22T11:06:56.170Z,10.63
2023-03-22T11:09:24.951Z,13.50
2023-03-22T11:11:54.652Z,15.13
2023-03-22T11:14:26.618Z,15.10
2023-03-22T11:16:56.324Z,13.17
2023-03-22T11:19:27.173Z,17.10
2023-03-22T11:21:57.569Z,16.20
2023-03-22T11:24:26.463Z,13.10
2023-03-22T11:27:04.977Z,14.00
2023-03-22T11:29:41.043Z,10.83
2023-03-22T11:32:20.789Z,13.77
2023-03-22T11:34:48.714Z,15.03
2023-03-22T11:37:18.799Z,11.53
2023-03-22T11:39:48.279Z,11.00
2023-03-22T11:42:19.811Z,11.00
2023-03-22T11:44:48.219Z,9.30
2023-03-22T11:47:16.300Z,11.20
2023-03-22T11:49:46.059Z,9.30
2023-03-22T11:52:17.530Z,9.00
2023-03-22T11:54:47.252Z,13.67
2023-03-22T11:57:17.440Z,10.67
2023-03-22T11:59:54.348Z,12.40
2023-03-22T12:02:24.958Z,9.10
2023-03-22T12:04:57.352Z,8.70
2023-03-22T12:07:26.379Z,11.10
2023-03-22T12:09:59.160Z,10.17
2023-03-22T12:12:29.835Z,11.20
2023-03-22T12:15:00.845Z,12.40
2023-03-22T12:17:35.245Z,10.00
2023-03-22T12:20:08.567Z,13.03
2023-03-22T12:22:40.058Z,11.20
2023-03-22T12:25:13.344Z,10.63
2023-03-22T12:27:42.610Z,10.13
2023-03-22T12:30:13.886Z,11.77
2023-03-22T12:32:44.962Z,9.20
2023-03-22T12:35:19.656Z,10.70
2023-03-22T12:37:50.896Z,11.40
2023-03-22T12:40:25.827Z,9.90
2023-03-22T12:43:01.155Z,14.27
2023-03-22T12:45:29.775Z,13.83
2023-03-22T12:47:59.086Z,9.93
2023-03-22T12:50:30.479Z,11.50
2023-03-22T12:52:58.608Z,10.53
2023-03-22T12:55:29.964Z,11.47
2023-03-22T12:57:58.351Z,10.33
2023-03-22T13:00:28.571Z,13.10
2023-03-22T13:02:59.429Z,10.70
2023-03-22T13:05:28.268Z,10.90
2023-03-22T13:07:58.752Z,11.60
2023-03-22T13:10:49.785Z,9.73
2023-03-22T13:13:19.355Z,8.63
2023-03-22T13:15:58.935Z,9.00
2023-03-22T13:18:33.434Z,10.80
2023-03-22T13:21:16.692Z,11.57
2023-03-22T13:24:02.465Z,11.90
2023-03-22T13:26:38.070Z,10.50
2023-03-22T13:29:10.538Z,8.13
2023-03-22T13:31:40.098Z,9.10
2023-03-22T13:34:14.668Z,6.60
2023-03-22T13:39:36.119Z,7.67
2023-03-22T13:42:08.126Z,8.33
2023-03-22T13:44:40.843Z,11.73
2023-03-22T13:47:09.194Z,11.07
2023-03-22T13:49:55.067Z,8.87
2023-03-22T13:52:25.259Z,10.30
2023-03-22T13:54:55.242Z,9.40
2023-03-22T13:57:38.542Z,10.93
2023-03-22T14:00:20.723Z,6.93
2023-03-22T14:02:49.793Z,11.33
2023-03-22T14:05:18.927Z,10.40
2023-03-22T14:07:48.786Z,8.17
2023-03-22T14:10:19.359Z,11.97
2023-03-22T14:12:50.838Z,8.30
2023-03-22T14:15:24.373Z,7.17
2023-03-22T14:17:55.465Z,10.37
2023-03-22T14:20:25.317Z,9.30
